createdAt,value
2023-01-18T00:01:14.549Z,3.09
2023-01-18T00:03:42.211Z,3.11
2023-01-18T00:06:10.552Z,3.14
2023-01-18T00:08:39.866Z,3.17
2023-01-18T00:11:10.966Z,3.19
2023-01-18T00:13:38.758Z,3.19
2023-01-18T00:16:18.483Z,3.17
2023-01-18T00:18:52.563Z,3.13
2023-01-18T00:21:19.579Z,3.13
2023-01-18T00:23:46.457Z,3.08
2023-01-18T00:26:13.866Z,3.05
2023-01-18T00:28:41.698Z,3.03
2023-01-18T00:31:18.776Z,3.03
2023-01-18T00:33:47.833Z,3.06
2023-01-18T00:36:15.686Z,3.06
2023-01-18T00:38:42.949Z,3.06
2023-01-18T00:41:09.757Z,3.03
2023-01-18T00:43:39.830Z,3.03
2023-01-18T00:46:12.120Z,3.02
2023-01-18T00:48:40.995Z,3.00
2023-01-18T00:51:10.866Z,2.99
2023-01-18T00:53:38.190Z,2.98
2023-01-18T00:56:10.580Z,3.01
2023-01-18T00:58:37.988Z,3.01
2023-01-18T01:01:06.515Z,3.03
2023-01-18T01:03:53.840Z,3.03
2023-01-18T01:06:45.663Z,3.02
2023-01-18T01:09:26.872Z,3.04
2023-01-18T01:12:13.139Z,3.02
2023-01-18T01:15:02.891Z,3.02
2023-01-18T01:17:54.555Z,2.96
2023-01-18T01:20:42.335Z,2.95
2023-01-18T01:23:31.203Z,2.88
2023-01-18T01:26:07.790Z,2.84
2023-01-18T01:28:43.021Z,2.78
2023-01-18T01:31:13.743Z,2.74
2023-01-18T01:33:41.212Z,2.75
2023-01-18T01:36:11.177Z,2.74
2023-01-18T01:38:38.776Z,2.72
2023-01-18T01:41:21.299Z,2.72
2023-01-18T01:43:51.505Z,2.68
2023-01-18T01:46:34.394Z,2.65
2023-01-18T01:49:17.578Z,2.68
2023-01-18T01:51:56.635Z,2.72
2023-01-18T01:54:29.042Z,2.68
2023-01-18T01:57:10.941Z,2.64
2023-01-18T01:59:48.721Z,2.63
2023-01-18T02:02:15.763Z,2.67
2023-01-18T02:04:46.382Z,2.64
2023-01-18T02:07:13.365Z,2.63
2023-01-18T02:09:41.224Z,2.62
2023-01-18T02:12:08.178Z,2.62
2023-01-18T02:14:35.825Z,2.64
2023-01-18T02:17:17.457Z,2.65
2023-01-18T02:20:34.254Z,2.60
2023-01-18T02:23:49.176Z,2.64
2023-01-18T02:26:50.935Z,2.62
2023-01-18T02:29:41.323Z,2.58
2023-01-18T02:32:23.939Z,2.62
2023-01-18T02:35:03.058Z,2.62
2023-01-18T02:38:16.921Z,2.67
2023-01-18T02:40:46.536Z,2.70
2023-01-18T02:43:35.688Z,2.75
2023-01-18T02:46:23.638Z,2.74
2023-01-18T02:48:50.964Z,2.76
2023-01-18T02:51:17.818Z,2.77
2023-01-18T02:53:47.328Z,2.81
2023-01-18T02:56:22.223Z,2.84
2023-01-18T02:59:21.355Z,2.86
2023-01-18T03:01:59.785Z,2.88
2023-01-18T03:04:37.972Z,2.86
2023-01-18T03:07:29.807Z,2.89
2023-01-18T03:09:58.772Z,2.86
2023-01-18T03:13:00.737Z,2.86
2023-01-18T03:16:18.312Z,2.87
2023-01-18T03:19:02.951Z,2.84
2023-01-18T03:21:49.015Z,2.86
2023-01-18T03:24:18.659Z,2.87
2023-01-18T03:26:53.189Z,2.85
2023-01-18T03:29:40.426Z,2.80
2023-01-18T03:32:35.672Z,2.81
2023-01-18T03:35:07.690Z,2.80
2023-01-18T03:37:39.670Z,2.78
2023-01-18T03:40:19.773Z,2.79
2023-01-18T03:43:12.157Z,2.80
2023-01-18T03:45:43.799Z,2.79
2023-01-18T03:48:11.821Z,2.79
2023-01-18T03:50:49.146Z,2.79
2023-01-18T03:53:42.518Z,2.79
2023-01-18T03:56:52.793Z,2.79
2023-01-18T03:59:19.613Z,2.80
2023-01-18T04:01:48.180Z,2.83
2023-01-18T04:04:16.155Z,2.84
2023-01-18T04:06:43.047Z,2.86
2023-01-18T04:09:11.899Z,2.90
2023-01-18T04:11:38.698Z,2.92
2023-01-18T04:14:06.158Z,2.86
2023-01-18T04:16:33.127Z,2.89
2023-01-18T04:19:00.097Z,2.89
2023-01-18T04:21:26.860Z,2.89
2023-01-18T04:23:53.691Z,2.90
2023-01-18T04:26:20.531Z,2.88
2023-01-18T04:28:47.360Z,2.88
2023-01-18T04:31:14.357Z,2.88
2023-01-18T04:33:41.224Z,2.91
2023-01-18T04:36:08.825Z,2.92
2023-01-18T04:38:35.708Z,2.91
2023-01-18T04:41:04.513Z,2.93
2023-01-18T04:43:31.821Z,2.92
2023-01-18T04:45:58.677Z,2.97
2023-01-18T04:48:26.212Z,2.95
2023-01-18T04:50:53.193Z,2.95
2023-01-18T04:53:20.322Z,2.93
2023-01-18T04:55:47.633Z,2.86
2023-01-18T04:58:15.168Z,2.83
2023-01-18T05:00:42.089Z,2.81
2023-01-18T05:03:11.672Z,2.82
2023-01-18T05:05:38.981Z,2.77
2023-01-18T05:08:05.820Z,2.75
2023-01-18T05:10:33.622Z,2.77
2023-01-18T05:13:00.934Z,2.79
2023-01-18T05:15:28.038Z,2.78
2023-01-18T05:17:54.815Z,2.77
2023-01-18T05:20:21.643Z,2.78
2023-01-18T05:22:48.438Z,2.80
2023-01-18T05:25:15.253Z,2.83
2023-01-18T05:27:42.079Z,2.81
2023-01-18T05:30:11.068Z,2.82
2023-01-18T05:32:38.120Z,2.84
2023-01-18T05:35:05.969Z,2.85
2023-01-18T05:37:32.922Z,2.84
2023-01-18T05:39:59.950Z,2.83
2023-01-18T05:42:26.821Z,2.79
2023-01-18T05:44:53.803Z,2.79
2023-01-18T05:47:20.691Z,2.79
2023-01-18T05:49:47.553Z,2.80
2023-01-18T05:52:14.369Z,2.76
2023-01-18T05:54:41.612Z,2.78
2023-01-18T05:57:08.652Z,2.81
2023-01-18T05:59:35.518Z,2.82
2023-01-18T06:02:03.878Z,2.78
2023-01-18T06:04:30.834Z,2.77
2023-01-18T06:06:57.948Z,2.78
2023-01-18T06:09:24.774Z,2.74
2023-01-18T06:11:51.564Z,2.71
2023-01-18T06:14:18.388Z,2.73
2023-01-18T06:16:45.294Z,2.77
2023-01-18T06:19:12.454Z,2.77
2023-01-18T06:21:39.480Z,2.76
2023-01-18T06:24:06.680Z,2.77
2023-01-18T06:26:33.525Z,2.74
2023-01-18T06:29:00.461Z,2.77
2023-01-18T06:31:27.280Z,2.79
2023-01-18T06:33:54.137Z,2.78
2023-01-18T06:36:20.985Z,2.76
2023-01-18T06:38:47.810Z,2.72
2023-01-18T06:41:15.884Z,2.71
2023-01-18T06:43:42.767Z,2.69
2023-01-18T06:46:11.560Z,2.65
2023-01-18T06:48:38.605Z,2.61
2023-01-18T06:51:05.633Z,2.61
2023-01-18T06:53:32.739Z,2.59
2023-01-18T06:56:01.786Z,2.55
2023-01-18T06:58:31.025Z,2.55
2023-01-18T07:01:00.398Z,2.57
2023-01-18T07:03:30.972Z,2.56
2023-01-18T07:06:00.446Z,2.56
2023-01-18T07:08:30.792Z,2.58
2023-01-18T07:10:59.382Z,2.59
2023-01-18T07:13:26.942Z,2.64
2023-01-18T07:15:57.994Z,2.67
2023-01-18T07:18:26.459Z,2.66
2023-01-18T07:21:02.000Z,2.64
2023-01-18T07:23:30.088Z,2.66
2023-01-18T07:26:04.715Z,2.67
2023-01-18T07:28:32.613Z,2.63
2023-01-18T07:31:00.317Z,2.60
2023-01-18T07:33:28.389Z,2.59
2023-01-18T07:35:57.506Z,2.64
2023-01-18T07:38:25.365Z,2.66
2023-01-18T07:41:09.336Z,2.66
2023-01-18T07:43:37.628Z,2.67
2023-01-18T07:46:06.765Z,2.70
2023-01-18T07:48:34.205Z,2.74
2023-01-18T07:51:07.152Z,2.73
2023-01-18T07:53:35.865Z,2.80
2023-01-18T07:56:06.731Z,2.86
2023-01-18T07:58:35.770Z,2.90
2023-01-18T08:01:09.815Z,2.90
2023-01-18T08:03:37.596Z,2.94
2023-01-18T08:06:08.642Z,2.91
2023-01-18T08:08:36.912Z,2.92
2023-01-18T08:11:06.200Z,2.92
2023-01-18T08:13:33.072Z,2.94
2023-01-18T08:16:02.966Z,2.96
2023-01-18T08:18:30.126Z,3.00
2023-01-18T08:20:57.286Z,3.00
2023-01-18T08:23:24.314Z,3.00
2023-01-18T08:25:51.887Z,3.02
2023-01-18T08:28:19.447Z,3.04
2023-01-18T08:30:48.871Z,3.07
2023-01-18T08:33:15.781Z,3.07
2023-01-18T08:35:47.853Z,3.09
2023-01-18T08:38:16.342Z,3.11
2023-01-18T08:40:43.525Z,3.14
2023-01-18T08:43:11.768Z,3.15
2023-01-18T08:45:38.876Z,3.12
2023-01-18T08:48:09.639Z,3.13
2023-01-18T08:50:39.268Z,3.14
2023-01-18T08:53:06.875Z,3.14
2023-01-18T08:55:36.462Z,3.15
2023-01-18T08:58:03.742Z,3.15
2023-01-18T09:00:30.615Z,3.17
2023-01-18T09:02:58.619Z,3.25
2023-01-18T09:05:27.107Z,3.39
2023-01-18T09:07:55.745Z,3.50
2023-01-18T09:10:23.200Z,3.59
2023-01-18T09:12:52.771Z,3.70
2023-01-18T09:15:20.427Z,3.85
2023-01-18T09:17:47.286Z,4.10
2023-01-18T09:20:18.571Z,4.25
2023-01-18T09:22:47.722Z,4.35
2023-01-18T09:25:15.119Z,4.35
2023-01-18T09:27:42.492Z,4.41
2023-01-18T09:30:10.295Z,4.61
2023-01-18T09:32:37.169Z,4.75
2023-01-18T09:35:04.484Z,4.86
2023-01-18T09:37:32.574Z,4.88
2023-01-18T09:40:00.307Z,4.99
2023-01-18T09:42:37.979Z,5.01
2023-01-18T09:45:05.932Z,5.16
2023-01-18T09:47:43.679Z,5.18
2023-01-18T09:50:16.228Z,5.22
2023-01-18T09:53:35.458Z,5.10
2023-01-18T09:56:27.913Z,5.13
2023-01-18T09:59:27.559Z,5.16
2023-01-18T10:01:56.227Z,5.28
2023-01-18T10:04:36.189Z,5.28
2023-01-18T10:07:07.928Z,5.33
2023-01-18T10:09:43.215Z,5.48
2023-01-18T10:12:38.996Z,5.43
2023-01-18T10:15:22.096Z,5.34
2023-01-18T10:17:53.608Z,5.18
2023-01-18T10:20:44.493Z,5.13
2023-01-18T10:23:35.796Z,4.99
2023-01-18T10:26:09.352Z,5.07
2023-01-18T10:29:00.768Z,5.25
2023-01-18T10:31:57.285Z,5.33
2023-01-18T10:34:34.447Z,5.31
2023-01-18T10:37:21.307Z,5.26
2023-01-18T10:40:12.497Z,5.32
2023-01-18T10:42:52.489Z,5.37
2023-01-18T10:45:24.200Z,5.27
2023-01-18T10:47:53.612Z,5.32
2023-01-18T10:50:39.976Z,5.31
2023-01-18T10:53:34.288Z,5.24
2023-01-18T10:56:16.413Z,5.23
2023-01-18T10:58:57.985Z,5.27
2023-01-18T11:01:36.768Z,5.24
2023-01-18T11:04:07.375Z,5.26
2023-01-18T11:06:51.061Z,5.23
2023-01-18T11:09:41.642Z,5.23
2023-01-18T11:12:38.448Z,5.18
2023-01-18T11:15:15.029Z,5.18
2023-01-18T11:18:00.384Z,5.13
2023-01-18T11:20:49.869Z,5.02
2023-01-18T11:23:37.433Z,4.96
2023-01-18T11:26:16.045Z,4.97
2023-01-18T11:29:02.291Z,5.00
2023-01-18T11:31:50.349Z,4.97
2023-01-18T11:34:25.393Z,5.14
2023-01-18T11:36:52.359Z,5.20
2023-01-18T11:39:27.304Z,5.32
2023-01-18T11:42:34.666Z,5.48
2023-01-18T11:45:24.866Z,5.49
2023-01-18T11:48:28.547Z,5.31
2023-01-18T11:51:22.548Z,5.21
2023-01-18T11:54:05.712Z,5.27
2023-01-18T11:56:52.048Z,5.22
2023-01-18T11:59:36.435Z,5.20
2023-01-18T12:02:12.386Z,5.16
2023-01-18T12:04:47.891Z,5.16
2023-01-18T12:07:18.879Z,5.11
2023-01-18T12:09:57.802Z,5.13
2023-01-18T12:12:52.720Z,5.01
2023-01-18T12:16:00.924Z,4.98
2023-01-18T12:19:02.689Z,4.91
2023-01-18T12:22:16.528Z,4.90
2023-01-18T12:25:01.885Z,4.84
2023-01-18T12:27:50.437Z,4.84
2023-01-18T12:31:21.337Z,4.85
2023-01-18T12:34:08.065Z,4.91
2023-01-18T12:36:51.728Z,4.88
2023-01-18T12:39:51.348Z,4.92
2023-01-18T12:42:46.624Z,4.91
2023-01-18T12:45:29.000Z,4.86
2023-01-18T12:48:54.930Z,4.92
2023-01-18T12:51:25.960Z,4.97
2023-01-18T12:54:08.957Z,5.03
2023-01-18T12:56:40.511Z,5.09
2023-01-18T12:59:25.305Z,5.14
2023-01-18T13:02:00.438Z,5.23
2023-01-18T13:04:36.622Z,5.32
2023-01-18T13:07:13.133Z,5.37
2023-01-18T13:09:46.280Z,5.42
2023-01-18T13:12:14.741Z,5.49
2023-01-18T13:15:04.900Z,5.45
2023-01-18T13:17:39.132Z,5.48
2023-01-18T13:20:10.731Z,5.53
2023-01-18T13:23:16.039Z,5.53
2023-01-18T13:26:21.441Z,5.55
2023-01-18T13:28:48.406Z,5.50
2023-01-18T13:31:15.383Z,5.45
2023-01-18T13:33:47.306Z,5.46
2023-01-18T13:36:17.386Z,5.43
2023-01-18T13:38:58.041Z,5.37
2023-01-18T13:41:29.212Z,5.35
2023-01-18T13:44:06.511Z,5.38
2023-01-18T13:46:36.505Z,5.39
2023-01-18T13:49:37.396Z,5.39
2023-01-18T13:52:35.522Z,5.38
2023-01-18T13:55:23.915Z,5.41
2023-01-18T13:57:55.583Z,5.41
2023-01-18T14:00:26.754Z,5.34
2023-01-18T14:03:07.793Z,5.33
2023-01-18T14:05:43.183Z,5.32
2023-01-18T14:08:31.337Z,5.33
2023-01-18T14:11:28.226Z,5.36
2023-01-18T14:13:54.939Z,5.33
2023-01-18T14:16:26.406Z,5.35
2023-01-18T14:19:00.875Z,5.37
2023-01-18T14:22:17.451Z,5.43
2023-01-18T14:25:17.945Z,5.44
2023-01-18T14:27:51.054Z,5.43
2023-01-18T14:30:27.967Z,5.43
2023-01-18T14:33:04.964Z,5.41
2023-01-18T14:35:31.962Z,5.35
2023-01-18T14:38:18.845Z,5.21
2023-01-18T14:40:57.268Z,5.07
2023-01-18T14:43:37.186Z,4.98
2023-01-18T14:46:21.088Z,4.89
2023-01-18T14:49:01.625Z,4.84
2023-01-18T14:51:29.890Z,4.80
2023-01-18T14:54:02.840Z,4.72
2023-01-18T14:56:34.786Z,4.69
2023-01-18T14:59:19.184Z,4.65
2023-01-18T15:02:14.533Z,4.65
2023-01-18T15:04:45.492Z,4.67
2023-01-18T15:07:24.896Z,4.64
2023-01-18T15:09:52.039Z,4.60
2023-01-18T15:12:24.272Z,4.57
2023-01-18T15:14:51.343Z,4.54
2023-01-18T15:17:24.833Z,4.48
2023-01-18T15:20:07.297Z,4.44
2023-01-18T15:22:38.281Z,4.35
2023-01-18T15:25:18.449Z,4.31
2023-01-18T15:27:51.827Z,4.27
2023-01-18T15:30:22.993Z,4.29
2023-01-18T15:32:58.083Z,4.29
2023-01-18T15:35:25.946Z,4.28
2023-01-18T15:37:53.198Z,4.26
2023-01-18T15:40:19.997Z,4.22
2023-01-18T15:43:07.582Z,4.21
2023-01-18T15:45:40.719Z,4.15
2023-01-18T15:48:18.628Z,4.09
2023-01-18T15:50:56.767Z,4.02
2023-01-18T15:53:56.173Z,3.98
2023-01-18T15:56:29.710Z,3.96
2023-01-18T15:59:00.567Z,3.94
2023-01-18T16:01:33.892Z,3.89
2023-01-18T16:04:11.749Z,3.86
2023-01-18T16:06:40.238Z,3.80
2023-01-18T16:09:20.667Z,3.74
2023-01-18T16:11:54.389Z,3.70
2023-01-18T16:14:33.599Z,3.66
2023-01-18T16:17:27.584Z,3.64
2023-01-18T16:19:57.695Z,3.63
2023-01-18T16:22:31.926Z,3.57
2023-01-18T16:25:02.587Z,3.54
2023-01-18T16:27:31.842Z,3.51
2023-01-18T16:30:14.634Z,3.47
2023-01-18T16:32:41.432Z,3.43
2023-01-18T16:35:10.842Z,3.39
2023-01-18T16:37:38.581Z,3.34
2023-01-18T16:40:08.758Z,3.29
2023-01-18T16:43:02.976Z,3.24
2023-01-18T16:45:35.440Z,3.24
2023-01-18T16:48:03.804Z,3.22
2023-01-18T16:50:31.234Z,3.18
2023-01-18T16:52:58.073Z,3.15
2023-01-18T16:55:24.936Z,3.10
2023-01-18T16:57:51.982Z,3.07
2023-01-18T17:00:26.362Z,3.05
2023-01-18T17:02:53.561Z,3.05
2023-01-18T17:05:20.739Z,3.03
2023-01-18T17:07:47.904Z,3.03
2023-01-18T17:10:29.193Z,3.01
2023-01-18T17:12:56.034Z,2.96
2023-01-18T17:15:22.902Z,2.90
2023-01-18T17:17:50.295Z,2.86
2023-01-18T17:20:23.612Z,2.80
2023-01-18T17:22:51.986Z,2.74
2023-01-18T17:25:20.464Z,2.69
2023-01-18T17:27:47.422Z,2.64
2023-01-18T17:30:20.259Z,2.62
2023-01-18T17:32:47.904Z,2.56
2023-01-18T17:35:17.737Z,2.52
2023-01-18T17:37:45.461Z,2.53
2023-01-18T17:40:20.352Z,2.49
2023-01-18T17:42:51.700Z,2.45
2023-01-18T17:45:18.629Z,2.44
2023-01-18T17:47:45.471Z,2.42
2023-01-18T17:50:17.421Z,2.39
2023-01-18T17:52:44.447Z,2.36
2023-01-18T17:55:13.669Z,2.32
2023-01-18T17:57:41.503Z,2.27
2023-01-18T18:00:13.442Z,2.26
2023-01-18T18:02:41.287Z,2.23
2023-01-18T18:05:09.117Z,2.21
2023-01-18T18:07:36.258Z,2.22
2023-01-18T18:10:05.363Z,2.21
2023-01-18T18:12:34.042Z,2.18
2023-01-18T18:15:01.520Z,2.15
2023-01-18T18:17:30.772Z,2.14
2023-01-18T18:19:58.181Z,2.14
2023-01-18T18:22:25.566Z,2.11
2023-01-18T18:24:52.687Z,2.09
2023-01-18T18:27:20.377Z,2.07
2023-01-18T18:29:47.867Z,2.05
2023-01-18T18:32:15.128Z,2.05
2023-01-18T18:34:42.017Z,2.04
2023-01-18T18:37:09.004Z,2.05
2023-01-18T18:39:35.862Z,2.05
2023-01-18T18:42:02.735Z,2.04
2023-01-18T18:44:29.601Z,2.02
2023-01-18T18:46:56.422Z,2.01
2023-01-18T18:49:23.230Z,1.97
2023-01-18T18:51:50.090Z,1.93
2023-01-18T18:54:17.004Z,1.92
2023-01-18T18:56:43.929Z,1.91
2023-01-18T18:59:10.898Z,1.89
2023-01-18T19:01:37.886Z,1.88
2023-01-18T19:04:05.419Z,1.86
2023-01-18T19:06:32.686Z,1.83
2023-01-18T19:08:59.627Z,1.81
2023-01-18T19:11:26.520Z,1.80
2023-01-18T19:13:55.947Z,1.80
2023-01-18T19:16:23.051Z,1.78
2023-01-18T19:18:49.972Z,1.78
2023-01-18T19:21:16.784Z,1.77
2023-01-18T19:23:43.701Z,1.75
2023-01-18T19:26:10.704Z,1.75
2023-01-18T19:28:37.756Z,1.72
2023-01-18T19:31:06.680Z,1.69
2023-01-18T19:33:33.746Z,1.60
2023-01-18T19:36:11.856Z,1.55
2023-01-18T19:38:46.440Z,1.50
2023-01-18T19:41:14.898Z,1.43
2023-01-18T19:43:42.750Z,1.36
2023-01-18T19:46:12.610Z,1.29
2023-01-18T19:48:40.194Z,1.25
2023-01-18T19:51:21.186Z,1.23
2023-01-18T19:53:49.295Z,1.23
2023-01-18T19:56:16.143Z,1.21
2023-01-18T19:58:43.233Z,1.22
2023-01-18T20:01:26.707Z,1.22
2023-01-18T20:04:01.241Z,1.23
2023-01-18T20:06:28.134Z,1.23
2023-01-18T20:08:54.987Z,1.24
2023-01-18T20:11:21.809Z,1.23
2023-01-18T20:13:50.315Z,1.24
2023-01-18T20:16:20.316Z,1.17
2023-01-18T20:18:48.671Z,1.12
2023-01-18T20:21:18.393Z,1.12
2023-01-18T20:23:45.978Z,1.12
2023-01-18T20:26:24.566Z,1.15
2023-01-18T20:28:55.831Z,1.19
2023-01-18T20:31:23.345Z,1.20
2023-01-18T20:33:50.424Z,1.26
2023-01-18T20:36:17.323Z,1.27
2023-01-18T20:38:44.175Z,1.21
2023-01-18T20:41:11.224Z,1.11
2023-01-18T20:43:38.136Z,1.05
2023-01-18T20:46:10.272Z,0.99
2023-01-18T20:48:38.606Z,0.94
2023-01-18T20:51:07.421Z,0.86
2023-01-18T20:53:34.754Z,0.79
2023-01-18T20:56:04.812Z,0.71
2023-01-18T20:58:32.018Z,0.69
2023-01-18T21:01:06.075Z,0.71
2023-01-18T21:03:33.024Z,0.73
2023-01-18T21:05:59.919Z,0.68
2023-01-18T21:08:26.727Z,0.64
2023-01-18T21:10:53.610Z,0.62
2023-01-18T21:13:20.572Z,0.63
2023-01-18T21:15:58.309Z,0.64
2023-01-18T21:18:28.823Z,0.66
